createdAt,value
2019-05-22T00:02:35.460Z,99.90
2019-05-22T00:05:17.499Z,99.90
2019-05-22T00:07:48.126Z,99.90
2019-05-22T00:10:19.685Z,99.90
2019-05-22T00:12:49.363Z,99.90
2019-05-22T00:15:19.095Z,99.90
2019-05-22T00:17:49.434Z,99.90
2019-05-22T00:20:20.175Z,99.90
2019-05-22T00:22:51.122Z,99.90
2019-05-22T00:25:20.883Z,99.90
2019-05-22T00:27:52.317Z,99.90
2019-05-22T00:30:22.703Z,99.90
2019-05-22T00:32:51.755Z,99.90
2019-05-22T00:35:22.683Z,99.90
2019-05-22T00:37:51.784Z,99.90
2019-05-22T00:40:22.363Z,99.90
2019-05-22T00:43:03.267Z,99.90
2019-05-22T00:45:24.684Z,99.90
2019-05-22T00:47:55.050Z,99.90
2019-05-22T00:50:29.117Z,99.90
2019-05-22T00:53:01.370Z,99.90
2019-05-22T00:55:48.156Z,99.90
2019-05-22T00:58:19.791Z,99.90
2019-05-22T01:00:50.127Z,99.90
2019-05-22T01:03:22.498Z,99.90
2019-05-22T01:05:51.866Z,99.90
2019-05-22T01:08:21.684Z,99.90
2019-05-22T01:10:54.773Z,99.90
2019-05-22T01:13:25.508Z,99.90
2019-05-22T01:15:55.170Z,99.90
2019-05-22T01:18:25.638Z,99.90
2019-05-22T01:20:57.841Z,99.90
2019-05-22T01:23:29.454Z,99.90
2019-05-22T01:26:00.122Z,99.90
2019-05-22T01:28:30.349Z,99.90
2019-05-22T01:31:06.938Z,99.90
2019-05-22T01:33:40.780Z,99.90
2019-05-22T01:36:17.342Z,99.90
2019-05-22T01:38:46.036Z,99.90
2019-05-22T01:41:18.674Z,99.90
2019-05-22T01:43:50.334Z,99.90
2019-05-22T01:46:21.091Z,99.90
2019-05-22T01:48:53.915Z,99.90
2019-05-22T01:51:22.643Z,99.90
2019-05-22T01:53:51.870Z,99.90
2019-05-22T01:56:21.163Z,99.90
2019-05-22T01:58:50.709Z,99.90
2019-05-22T02:01:21.745Z,99.90
2019-05-22T02:03:52.122Z,99.90
2019-05-22T02:06:23.192Z,99.90
2019-05-22T02:08:56.479Z,99.90
2019-05-22T02:11:27.350Z,99.90
2019-05-22T02:14:12.548Z,99.90
2019-05-22T02:16:56.297Z,99.90
2019-05-22T02:19:16.519Z,99.90
2019-05-22T02:21:49.471Z,99.90
2019-05-22T02:24:18.665Z,99.90
2019-05-22T02:26:47.943Z,99.90
2019-05-22T02:29:19.679Z,99.90
2019-05-22T02:31:52.977Z,99.90
2019-05-22T02:34:21.507Z,99.90
2019-05-22T02:36:50.200Z,99.90
2019-05-22T02:39:26.671Z,99.90
2019-05-22T02:42:00.111Z,99.90
2019-05-22T02:44:29.817Z,99.90
2019-05-22T02:47:16.767Z,99.90
2019-05-22T02:49:32.710Z,99.90
2019-05-22T02:52:02.921Z,99.90
2019-05-22T02:54:32.599Z,99.90
2019-05-22T02:57:02.191Z,99.90
2019-05-22T02:59:31.388Z,99.90
2019-05-22T03:02:01.950Z,99.90
2019-05-22T03:04:53.477Z,99.90
2019-05-22T03:07:24.641Z,99.90
2019-05-22T03:09:53.998Z,99.90
2019-05-22T03:12:24.402Z,99.90
2019-05-22T03:14:54.541Z,99.90
2019-05-22T03:17:31.045Z,99.90
2019-05-22T03:20:04.419Z,99.90
2019-05-22T03:22:40.427Z,99.90
2019-05-22T03:25:15.521Z,99.90
2019-05-22T03:27:50.229Z,99.90
2019-05-22T03:30:23.842Z,99.90
2019-05-22T03:32:54.747Z,99.90
2019-05-22T03:35:26.245Z,99.90
2019-05-22T03:37:56.976Z,99.90
2019-05-22T03:40:28.777Z,99.90
2019-05-22T03:42:58.036Z,99.90
2019-05-22T03:45:29.334Z,99.90
2019-05-22T03:47:59.622Z,99.90
2019-05-22T03:50:29.534Z,99.90
2019-05-22T03:53:01.246Z,99.90
2019-05-22T03:55:29.967Z,99.90
2019-05-22T03:57:59.464Z,99.90
2019-05-22T04:00:29.238Z,99.90
2019-05-22T04:07:58.396Z,99.90
2019-05-22T04:10:30.491Z,99.90
2019-05-22T04:20:30.228Z,99.90
2019-05-22T04:22:59.713Z,99.90
2019-05-22T04:25:29.077Z,99.90
2019-05-22T04:27:58.468Z,99.90
2019-05-22T04:30:27.538Z,99.90
2019-05-22T04:32:56.857Z,99.90
2019-05-22T04:35:26.645Z,99.90
2019-05-22T04:37:55.937Z,99.90
2019-05-22T04:40:31.343Z,99.90
2019-05-22T04:43:00.438Z,99.90
2019-05-22T04:45:30.266Z,99.90
2019-05-22T04:48:03.731Z,99.90
2019-05-22T04:50:33.928Z,99.90
2019-05-22T04:53:02.878Z,99.90
2019-05-22T04:55:33.014Z,99.90
2019-05-22T04:58:11.118Z,99.90
2019-05-22T05:00:40.022Z,99.90
2019-05-22T05:03:09.074Z,99.90
2019-05-22T05:05:45.989Z,99.90
2019-05-22T05:08:15.276Z,99.90
2019-05-22T05:10:47.122Z,99.90
2019-05-22T05:13:15.871Z,99.90
2019-05-22T05:15:45.004Z,99.90
2019-05-22T05:18:14.386Z,99.90
2019-05-22T05:20:44.463Z,99.90
2019-05-22T05:23:13.314Z,99.90
2019-05-22T05:25:43.603Z,99.90
2019-05-22T05:28:12.637Z,99.90
2019-05-22T05:30:41.503Z,99.90
2019-05-22T05:33:11.184Z,99.90
2019-05-22T05:35:40.276Z,99.90
2019-05-22T05:38:11.302Z,99.90
2019-05-22T05:40:44.402Z,99.90
2019-05-22T05:43:15.194Z,99.90
2019-05-22T05:45:46.660Z,99.90
2019-05-22T05:48:17.522Z,99.90
2019-05-22T05:51:08.531Z,99.90
2019-05-22T05:53:55.121Z,99.90
2019-05-22T05:56:26.912Z,99.90
2019-05-22T05:58:57.866Z,99.90
2019-05-22T06:01:28.336Z,99.90
2019-05-22T06:03:58.699Z,99.90
2019-05-22T06:06:33.667Z,99.90
2019-05-22T06:09:04.341Z,99.90
2019-05-22T06:11:42.994Z,99.90
2019-05-22T06:14:24.036Z,99.90
2019-05-22T06:17:04.878Z,99.90
2019-05-22T06:19:36.863Z,99.90
2019-05-22T06:22:05.730Z,99.90
2019-05-22T06:24:37.924Z,99.90
2019-05-22T06:27:16.331Z,99.90
2019-05-22T06:30:06.456Z,99.90
2019-05-22T06:33:09.039Z,99.90
2019-05-22T06:35:38.877Z,99.90
2019-05-22T06:50:50.271Z,99.90
2019-05-22T06:53:19.242Z,99.90
2019-05-22T06:55:48.529Z,99.90
2019-05-22T06:58:17.658Z,99.90
2019-05-22T07:00:46.559Z,99.90
2019-05-22T07:03:15.927Z,99.90
2019-05-22T07:05:44.785Z,99.90
2019-05-22T07:08:13.728Z,99.90
2019-05-22T07:10:43.395Z,99.90
2019-05-22T07:13:13.176Z,99.90
2019-05-22T07:15:42.134Z,99.90
2019-05-22T07:18:13.475Z,99.90
2019-05-22T07:20:42.842Z,99.90
2019-05-22T07:23:13.203Z,99.90
2019-05-22T07:25:44.487Z,99.90
2019-05-22T07:28:15.661Z,99.90
2019-05-22T07:30:45.145Z,99.90
2019-05-22T07:33:14.499Z,99.90
2019-05-22T07:36:04.593Z,99.90
2019-05-22T07:38:15.767Z,99.90
2019-05-22T07:40:44.815Z,99.90
2019-05-22T07:43:14.816Z,99.90
2019-05-22T07:45:44.187Z,99.90
2019-05-22T07:48:13.846Z,99.90
2019-05-22T07:50:48.535Z,99.90
2019-05-22T07:53:15.910Z,99.90
2019-05-22T07:55:45.500Z,99.90
2019-05-22T07:58:16.138Z,99.90
2019-05-22T08:00:54.777Z,99.90
2019-05-22T08:03:25.092Z,99.90
2019-05-22T08:05:56.165Z,99.90
2019-05-22T08:08:26.617Z,99.90
2019-05-22T08:10:56.411Z,99.90
2019-05-22T08:13:26.541Z,99.90
2019-05-22T08:15:55.556Z,99.90
2019-05-22T08:18:26.213Z,99.90
2019-05-22T08:20:54.932Z,99.90
2019-05-22T08:23:26.099Z,99.90
2019-05-22T08:25:56.273Z,99.90
2019-05-22T08:28:25.536Z,99.90
2019-05-22T08:30:54.844Z,99.90
2019-05-22T08:33:24.458Z,99.90
2019-05-22T08:35:54.095Z,99.90
2019-05-22T08:38:28.239Z,99.90
2019-05-22T08:40:59.926Z,99.90
2019-05-22T08:43:30.256Z,99.90
2019-05-22T08:46:00.257Z,99.90
2019-05-22T08:48:30.533Z,99.90
2019-05-22T08:51:00.167Z,99.90
2019-05-22T08:53:45.663Z,99.90
2019-05-22T08:56:00.782Z,99.90
2019-05-22T08:58:30.156Z,99.90
2019-05-22T09:00:59.254Z,99.90
2019-05-22T09:03:28.650Z,99.90
2019-05-22T09:05:57.481Z,99.90
2019-05-22T09:08:26.443Z,99.90
2019-05-22T09:10:55.227Z,99.90
2019-05-22T09:13:24.015Z,99.90
2019-05-22T09:15:53.680Z,99.90
2019-05-22T09:18:22.877Z,99.90
2019-05-22T09:20:52.137Z,99.90
2019-05-22T09:23:21.188Z,99.90
2019-05-22T09:25:50.514Z,99.90
2019-05-22T09:28:19.379Z,99.90
2019-05-22T09:30:48.293Z,99.90
2019-05-22T09:33:18.539Z,99.90
2019-05-22T09:35:47.795Z,99.90
2019-05-22T09:38:16.483Z,99.90
2019-05-22T09:40:45.591Z,99.90
2019-05-22T09:43:14.556Z,99.90
2019-05-22T09:45:43.299Z,99.90
2019-05-22T09:48:12.514Z,99.90
2019-05-22T09:50:41.895Z,99.90
2019-05-22T09:53:10.649Z,99.90
2019-05-22T09:55:40.011Z,99.90
2019-05-22T09:58:09.074Z,99.90
2019-05-22T10:00:38.447Z,99.90
2019-05-22T10:03:07.606Z,99.90
2019-05-22T10:05:36.647Z,99.90
2019-05-22T10:08:05.655Z,99.90
2019-05-22T10:10:34.646Z,99.90
2019-05-22T10:13:03.722Z,99.90
2019-05-22T10:15:33.161Z,99.90
2019-05-22T10:18:02.009Z,99.90
2019-05-22T10:20:31.176Z,99.90
2019-05-22T10:23:14.597Z,99.90
2019-05-22T10:25:31.954Z,99.90
2019-05-22T10:28:00.638Z,99.90
2019-05-22T10:30:29.910Z,99.90
2019-05-22T10:32:58.691Z,99.90
2019-05-22T10:35:29.221Z,99.90
2019-05-22T10:37:57.908Z,99.90
2019-05-22T10:40:27.091Z,99.90
2019-05-22T10:42:56.693Z,99.90
2019-05-22T10:45:27.198Z,99.90
2019-05-22T10:47:56.872Z,99.90
2019-05-22T10:50:26.591Z,99.90
2019-05-22T10:52:55.835Z,99.90
2019-05-22T10:55:25.209Z,99.90
2019-05-22T10:57:54.131Z,99.90
2019-05-22T11:00:24.975Z,99.90
2019-05-22T11:02:53.901Z,99.90
2019-05-22T11:05:23.266Z,99.90
2019-05-22T11:07:52.441Z,99.90
2019-05-22T11:10:24.456Z,99.90
2019-05-22T11:12:53.908Z,99.90
2019-05-22T11:15:23.663Z,99.90
2019-05-22T11:17:53.220Z,99.90
2019-05-22T11:20:23.675Z,99.90
2019-05-22T11:22:52.969Z,99.90
2019-05-22T11:25:22.776Z,99.90
2019-05-22T11:27:53.704Z,99.90
2019-05-22T11:30:24.285Z,99.90
2019-05-22T11:32:53.912Z,99.90
2019-05-22T11:35:23.848Z,99.90
2019-05-22T11:37:53.295Z,99.90
2019-05-22T11:40:22.818Z,99.90
2019-05-22T11:42:52.971Z,99.90
2019-05-22T11:45:22.241Z,99.90
2019-05-22T11:47:51.536Z,99.90
2019-05-22T11:50:21.877Z,99.90
2019-05-22T11:52:50.862Z,99.90
2019-05-22T11:55:20.365Z,99.90
2019-05-22T11:57:49.457Z,99.90
2019-05-22T12:00:20.136Z,99.90
2019-05-22T12:02:49.911Z,99.90
2019-05-22T12:05:19.859Z,99.90
2019-05-22T12:07:49.063Z,99.90
2019-05-22T12:10:22.783Z,99.90
2019-05-22T12:12:53.587Z,99.90
2019-05-22T12:15:26.467Z,99.90
2019-05-22T12:17:55.823Z,99.90
2019-05-22T12:20:26.088Z,99.90
2019-05-22T12:22:55.834Z,99.90
2019-05-22T12:25:25.717Z,99.90
2019-05-22T12:27:55.082Z,99.90
2019-05-22T12:30:24.578Z,99.90
2019-05-22T12:32:53.395Z,99.90
2019-05-22T12:35:22.061Z,99.90
2019-05-22T12:37:51.221Z,99.90
2019-05-22T12:40:20.885Z,99.90
2019-05-22T12:42:51.461Z,99.90
2019-05-22T12:45:25.864Z,99.90
2019-05-22T12:47:54.910Z,99.90
2019-05-22T12:50:27.312Z,99.90
2019-05-22T12:52:56.115Z,99.90
2019-05-22T12:55:24.995Z,99.90
2019-05-22T12:57:53.767Z,99.90
2019-05-22T13:00:25.947Z,99.90
2019-05-22T13:02:55.823Z,99.90
2019-05-22T13:05:24.927Z,99.90
2019-05-22T13:07:53.995Z,99.90
2019-05-22T13:10:24.174Z,99.90
2019-05-22T13:12:53.057Z,99.90
2019-05-22T13:15:23.244Z,99.90
2019-05-22T13:17:54.469Z,99.90
2019-05-22T13:20:40.991Z,99.90
2019-05-22T13:22:56.945Z,99.90
2019-05-22T13:25:33.067Z,99.90
2019-05-22T13:28:03.100Z,99.90
2019-05-22T13:30:34.885Z,99.20
2019-05-22T13:33:05.038Z,99.90
2019-05-22T13:35:35.042Z,99.90
2019-05-22T13:38:04.602Z,99.90
2019-05-22T13:40:34.657Z,99.90
2019-05-22T13:43:04.374Z,97.00
2019-05-22T13:45:33.618Z,93.60
2019-05-22T13:48:02.382Z,97.30
2019-05-22T13:50:31.351Z,99.90
2019-05-22T13:53:03.119Z,99.90
2019-05-22T13:55:32.971Z,99.60
2019-05-22T13:58:02.169Z,99.90
2019-05-22T14:00:31.155Z,99.90
2019-05-22T14:03:00.237Z,99.90
2019-05-22T14:05:29.642Z,95.00
2019-05-22T14:07:58.848Z,97.10
2019-05-22T14:10:30.391Z,92.60
2019-05-22T14:13:00.963Z,89.70
2019-05-22T14:15:48.310Z,85.40
2019-05-22T14:18:01.074Z,83.60
2019-05-22T14:20:30.511Z,86.50
2019-05-22T14:22:59.202Z,88.80
2019-05-22T14:25:28.342Z,88.80
2019-05-22T14:27:59.170Z,86.80
2019-05-22T14:30:30.052Z,88.40
2019-05-22T14:33:04.343Z,87.30
2019-05-22T14:35:46.983Z,90.30
2019-05-22T14:38:04.227Z,83.20
2019-05-22T14:40:33.842Z,86.80
2019-05-22T14:43:02.667Z,86.60
2019-05-22T14:45:31.452Z,78.60
2019-05-22T14:48:00.318Z,76.70
2019-05-22T14:50:32.967Z,76.50
2019-05-22T14:53:01.864Z,84.50
2019-05-22T14:55:35.788Z,72.70
2019-05-22T14:58:05.620Z,68.20
2019-05-22T15:00:36.358Z,68.50
2019-05-22T15:03:06.709Z,74.40
2019-05-22T15:05:35.929Z,70.10
2019-05-22T15:08:06.283Z,70.00
2019-05-22T15:10:36.438Z,84.60
2019-05-22T15:13:05.950Z,81.50
2019-05-22T15:15:35.276Z,89.90
2019-05-22T15:18:04.416Z,85.10
2019-05-22T15:20:37.715Z,81.30
2019-05-22T15:23:07.599Z,80.00
2019-05-22T15:25:36.826Z,79.10
2019-05-22T15:28:07.308Z,83.80
2019-05-22T15:30:36.399Z,81.60
2019-05-22T15:33:05.675Z,82.80
2019-05-22T15:35:35.415Z,78.30
2019-05-22T15:38:05.116Z,73.50
2019-05-22T15:40:34.703Z,74.60
2019-05-22T15:43:06.908Z,74.80
2019-05-22T15:45:36.647Z,74.90
2019-05-22T15:48:13.511Z,76.70
2019-05-22T15:50:44.825Z,75.50
2019-05-22T15:53:15.354Z,74.40
2019-05-22T15:55:47.819Z,78.00
2019-05-22T15:58:18.098Z,78.20
2019-05-22T16:00:47.745Z,73.80
2019-05-22T16:03:22.698Z,77.30
2019-05-22T16:05:53.580Z,74.40
2019-05-22T16:08:23.034Z,76.60
2019-05-22T16:10:52.830Z,77.40
2019-05-22T16:13:22.888Z,82.10
2019-05-22T16:15:54.560Z,82.70
2019-05-22T16:18:29.471Z,81.10
2019-05-22T16:21:02.059Z,80.90
2019-05-22T16:23:33.411Z,82.50
2019-05-22T16:26:04.541Z,86.20
2019-05-22T16:28:36.595Z,82.90
2019-05-22T16:31:08.260Z,84.50
2019-05-22T16:33:37.939Z,85.60
2019-05-22T16:36:06.916Z,84.00
2019-05-22T16:38:37.540Z,85.50
2019-05-22T16:41:07.106Z,89.50
2019-05-22T16:43:49.072Z,87.10
2019-05-22T16:46:14.144Z,87.30
2019-05-22T16:48:44.115Z,83.60
2019-05-22T16:51:15.386Z,88.40
2019-05-22T16:53:46.999Z,90.50
2019-05-22T16:56:17.273Z,90.30
2019-05-22T16:58:46.311Z,90.50
2019-05-22T17:01:17.775Z,92.90
2019-05-22T17:03:49.487Z,88.00
2019-05-22T17:06:19.051Z,92.10
2019-05-22T17:08:47.998Z,90.00
2019-05-22T17:11:17.435Z,87.40
2019-05-22T17:13:47.243Z,90.40
2019-05-22T17:16:16.851Z,88.10
2019-05-22T17:18:48.355Z,89.20
2019-05-22T17:21:17.671Z,91.60
2019-05-22T17:23:47.131Z,90.00
2019-05-22T17:26:16.324Z,92.20
2019-05-22T17:28:45.455Z,92.50
2019-05-22T17:31:15.484Z,91.90
2019-05-22T17:33:44.691Z,91.80
2019-05-22T17:36:15.076Z,91.60
2019-05-22T17:38:44.233Z,90.20
2019-05-22T17:41:13.798Z,91.50
2019-05-22T17:43:43.968Z,87.20
2019-05-22T17:46:15.125Z,90.30
2019-05-22T17:48:44.375Z,90.20
2019-05-22T17:51:14.251Z,91.30
2019-05-22T17:53:43.119Z,92.00
2019-05-22T17:56:12.521Z,91.90
2019-05-22T17:58:41.235Z,92.80
2019-05-22T18:01:10.079Z,92.30
2019-05-22T19:02:44.550Z,99.90
2019-05-22T19:05:14.197Z,99.90
2019-05-22T19:07:43.499Z,99.90
2019-05-22T19:10:13.751Z,99.90
2019-05-22T19:12:43.129Z,99.90
2019-05-22T19:15:17.261Z,99.90
2019-05-22T19:17:47.872Z,99.90
2019-05-22T19:20:17.572Z,99.90
2019-05-22T19:22:59.356Z,99.90
2019-05-22T19:25:19.564Z,99.90
2019-05-22T19:27:49.476Z,99.90
2019-05-22T19:30:22.170Z,99.90
2019-05-22T19:32:51.049Z,99.90
2019-05-22T19:35:21.086Z,99.90
2019-05-22T19:37:50.597Z,99.90
2019-05-22T19:40:19.859Z,99.90
2019-05-22T19:42:49.393Z,99.90
2019-05-22T19:45:18.935Z,99.90
2019-05-22T19:47:52.895Z,99.90
2019-05-22T19:50:24.020Z,99.90
2019-05-22T19:52:55.010Z,99.90
2019-05-22T19:55:26.012Z,99.90
2019-05-22T19:57:55.299Z,99.90
2019-05-22T20:00:24.691Z,99.90
2019-05-22T20:02:55.098Z,99.90
2019-05-22T20:05:25.527Z,99.90
2019-05-22T20:07:54.822Z,99.90
2019-05-22T20:10:25.363Z,99.90
2019-05-22T20:12:55.429Z,99.90
2019-05-22T20:15:24.106Z,99.90
2019-05-22T20:17:53.322Z,99.90
2019-05-22T20:20:23.313Z,99.90
2019-05-22T20:22:52.247Z,99.90
2019-05-22T20:25:22.163Z,99.90
2019-05-22T20:27:51.324Z,99.90
2019-05-22T20:30:21.866Z,99.90
2019-05-22T20:32:51.406Z,99.90
2019-05-22T20:35:20.352Z,99.90
2019-05-22T20:37:49.236Z,99.90
2019-05-22T20:40:20.378Z,99.90
2019-05-22T20:42:49.320Z,99.90
2019-05-22T20:45:21.101Z,99.90
2019-05-22T20:47:54.557Z,99.90
2019-05-22T20:50:25.314Z,99.90
2019-05-22T20:52:55.067Z,99.90
2019-05-22T20:55:24.184Z,99.90
2019-05-22T20:57:53.263Z,99.90
2019-05-22T21:00:23.220Z,99.90
2019-05-22T21:02:54.889Z,99.90
2019-05-22T21:05:25.423Z,99.90
2019-05-22T21:07:57.145Z,99.90
2019-05-22T21:10:27.141Z,99.90
2019-05-22T21:12:56.800Z,99.90
2019-05-22T21:15:27.712Z,99.90
2019-05-22T21:17:56.433Z,99.90
2019-05-22T21:20:27.308Z,99.90
2019-05-22T21:22:57.177Z,99.90
2019-05-22T21:25:26.201Z,99.90
2019-05-22T21:27:55.148Z,99.90
2019-05-22T21:30:26.802Z,99.90
2019-05-22T21:32:55.774Z,99.90
2019-05-22T21:35:24.643Z,99.90
2019-05-22T21:37:53.627Z,99.90
2019-05-22T21:40:24.507Z,99.90
2019-05-22T21:42:54.089Z,99.90
2019-05-22T21:45:24.195Z,99.90
2019-05-22T21:47:53.247Z,99.90
2019-05-22T21:50:22.598Z,99.90
2019-05-22T21:52:52.067Z,99.90
2019-05-22T21:55:21.976Z,99.90
2019-05-22T21:57:51.042Z,99.90
2019-05-22T22:00:42.782Z,99.90
2019-05-22T22:03:19.283Z,99.90
2019-05-22T22:05:48.274Z,99.90
2019-05-22T22:08:17.528Z,99.90
2019-05-22T22:10:46.779Z,99.90
2019-05-22T22:13:16.161Z,99.90
2019-05-22T22:15:46.128Z,99.90
2019-05-22T22:18:15.799Z,99.90
2019-05-22T22:20:45.606Z,99.90
2019-05-22T22:23:16.971Z,99.90
2019-05-22T22:25:46.333Z,99.90
2019-05-22T22:28:16.411Z,99.90
2019-05-22T22:30:53.567Z,99.90
2019-05-22T22:33:25.315Z,99.90
2019-05-22T22:35:55.059Z,99.90
2019-05-22T22:38:27.896Z,99.90
2019-05-22T22:40:57.518Z,99.90
2019-05-22T22:43:30.314Z,99.90
2019-05-22T22:46:05.687Z,99.90
2019-05-22T22:48:39.160Z,99.90
2019-05-22T22:51:12.233Z,99.90
2019-05-22T22:53:42.290Z,99.90
2019-05-22T22:56:11.948Z,99.90
2019-05-22T22:58:41.202Z,99.90
2019-05-22T23:01:13.557Z,99.90
2019-05-22T23:03:45.538Z,99.90
2019-05-22T23:06:15.245Z,99.90
2019-05-22T23:08:44.999Z,99.90
2019-05-22T23:11:15.611Z,99.90
2019-05-22T23:13:45.127Z,99.90
2019-05-22T23:16:15.085Z,99.90
2019-05-22T23:18:48.453Z,99.90
2019-05-22T23:21:17.583Z,99.90
2019-05-22T23:23:46.123Z,99.90
2019-05-22T23:26:16.344Z,99.90
2019-05-22T23:28:45.231Z,99.90
2019-05-22T23:31:14.797Z,99.90
2019-05-22T23:33:44.075Z,99.90
2019-05-22T23:36:13.529Z,99.90
2019-05-22T23:38:43.355Z,99.90
2019-05-22T23:41:13.846Z,99.90
2019-05-22T23:43:44.820Z,99.90
2019-05-22T23:46:15.031Z,99.90
2019-05-22T23:48:44.915Z,99.90
2019-05-22T23:51:14.291Z,99.90
2019-05-22T23:53:44.627Z,99.90
2019-05-22T23:56:14.492Z,99.90
2019-05-22T23:58:52.151Z,99.90
